Carolina Forest, South Carolina
Current Conditions -  °F | °C
As of 5:35 AM on Wednesday 22 Oct 2014 (Local Time) from KMYR Reporting Station
Clear Clear  
Wind Chill: 57°   Ceiling: Unl
Heat Index: 57°   Visibility: 10mi
Dew Point: 39°   Wind: 12mph
Humidity: 51%   Direction: 330°NNW
Pressure: 29.94"   Gusts: NA
Location:  33.7109°N, 78.9964°W
Report Text: KMYR 220935Z AUTO 33010KT 10SM CLR 14/04 A2994 RMK AO1
Loading
Personal Weather Stations






























Interactive Weather Map
Tropical Storm Tracking
New forecast layout! Learn more

10-Day Weather Forecast

Advertisements
Track Severe Weather on mobile